Hassyoumaru — JL6679 — position and weather

sailwx.info

Track history (hours):
 
Tides and Currents Weather Stations Pressure Air Temp Water Temp Dewpoint Dewpoint Depression Visibility Wind Speed Wind Dir Waves Ship Positions

Hassyoumaru

Last reported at 2018-Jun-16 04:12 UTC. Time now 2018-Jun-21 10:11 UTC.
Position N 34°36' E 135°04'.

Length 58 m.

Type: Cargo ship. MMSI: 431501763.

Date/timePositionNaut miles runAvg speedWind from/ knotsBaromVisibWave heightAir tempDewpointWater temp
2018-Jun-16 04:12N 34°36' E 135°04'210.3
2018-Jun-16 04:00N 34°36' E 135°07'611.8
2018-Jun-16 03:30N 34°37' E 135°14'711.9
2018-Jun-16 02:57N 34°39' E 135°22'5 0.1
2018-Jun-14 17:19N 34°40' E 135°27'3 8.0
2018-Jun-14 16:58N 34°39' E 135°24'510.7
2018-Jun-14 16:30N 34°38' E 135°18'610.8
2018-Jun-14 15:57N 34°36' E 135°12'23 9.6
2018-Jun-14 13:35N 34°32' E 134°44'3 9.8
2018-Jun-14 13:19N 34°31' E 134°41'510.4
2018-Jun-14 12:48N 34°29' E 134°36'23 0.8
2018-Jun-13 08:12N 34°37' E 135°02'311.7
2018-Jun-13 07:59N 34°36' E 135°04'611.8
2018-Jun-13 07:29N 34°37' E 135°12'611.8
2018-Jun-13 06:56N 34°38' E 135°19'511.2
2018-Jun-13 06:29N 34°39' E 135°25'2 2.3
2018-Jun-13 05:35N 34°40' E 135°27'0 0.0
2018-Jun-13 05:23N 34°40' E 135°27'0 0.0
2018-Jun-13 04:59N 34°40' E 135°27'0 0.0
2018-Jun-12 19:38N 34°40' E 135°27'0 0.0
2018-Jun-12 18:14N 34°40' E 135°27'0 0.0
2018-Jun-12 17:56N 34°40' E 135°27'3 3.9
2018-Jun-12 17:13N 34°39' E 135°24'210.3
2018-Jun-12 17:00N 34°39' E 135°22'510.8
2018-Jun-12 16:30N 34°37' E 135°15'611.5
2018-Jun-12 15:59N 34°36' E 135°08'2811.2
2018-Jun-12 13:31N 34°28' E 134°36'210.6
2018-Jun-12 13:18N 34°28' E 134°34'  
Track history (hours):
 
Tides and Currents Weather Stations Pressure Air Temp Water Temp Dewpoint Dewpoint Depression Visibility Wind Speed Wind Dir Waves Ship Positions

Hassyoumaru

Last reported at 2018-Jun-16 04:12 UTC. Time now 2018-Jun-21 10:11 UTC.
Position N 34°36' E 135°04'.

Length 58 m.

Type: Cargo ship. MMSI: 431501763.

Date/timePositionNaut miles runAvg speedWind from/ knotsBaromVisibWave heightAir tempDewpointWater temp
2018-Jun-16 04:12N 34°36' E 135°04'210.3
2018-Jun-16 04:00N 34°36' E 135°07'611.8
2018-Jun-16 03:30N 34°37' E 135°14'711.9
2018-Jun-16 02:57N 34°39' E 135°22'5 0.1
2018-Jun-14 17:19N 34°40' E 135°27'3 8.0
2018-Jun-14 16:58N 34°39' E 135°24'510.7
2018-Jun-14 16:30N 34°38' E 135°18'610.8
2018-Jun-14 15:57N 34°36' E 135°12'23 9.6
2018-Jun-14 13:35N 34°32' E 134°44'3 9.8
2018-Jun-14 13:19N 34°31' E 134°41'510.4
2018-Jun-14 12:48N 34°29' E 134°36'23 0.8
2018-Jun-13 08:12N 34°37' E 135°02'311.7
2018-Jun-13 07:59N 34°36' E 135°04'611.8
2018-Jun-13 07:29N 34°37' E 135°12'611.8
2018-Jun-13 06:56N 34°38' E 135°19'511.2
2018-Jun-13 06:29N 34°39' E 135°25'2 2.3
2018-Jun-13 05:35N 34°40' E 135°27'0 0.0
2018-Jun-13 05:23N 34°40' E 135°27'0 0.0
2018-Jun-13 04:59N 34°40' E 135°27'0 0.0
2018-Jun-12 19:38N 34°40' E 135°27'0 0.0
2018-Jun-12 18:14N 34°40' E 135°27'0 0.0
2018-Jun-12 17:56N 34°40' E 135°27'3 3.9
2018-Jun-12 17:13N 34°39' E 135°24'210.3
2018-Jun-12 17:00N 34°39' E 135°22'510.8
2018-Jun-12 16:30N 34°37' E 135°15'611.5
2018-Jun-12 15:59N 34°36' E 135°08'2811.2
2018-Jun-12 13:31N 34°28' E 134°36'210.6
2018-Jun-12 13:18N 34°28' E 134°34'  

Dump ship's entire track history